sensor_id;sensor_type;location;lat;lon;timestamp;P1;durP1;ratioP1;P2;durP2;ratioP2
25349;SDS011;13302;48.796;11.978;2023-09-30T00:01:57;13.57;;;8.83;;
25349;SDS011;13302;48.796;11.978;2023-09-30T00:04:45;14.73;;;9.33;;
25349;SDS011;13302;48.796;11.978;2023-09-30T00:07:32;16.17;;;10.10;;
25349;SDS011;13302;48.796;11.978;2023-09-30T00:10:19;15.27;;;9.20;;
25349;SDS011;13302;48.796;11.978;2023-09-30T00:13:07;15.80;;;9.83;;
25349;SDS011;13302;48.796;11.978;2023-09-30T00:15:54;14.43;;;9.77;;
25349;SDS011;13302;48.796;11.978;2023-09-30T00:18:41;14.33;;;10.00;;
25349;SDS011;13302;48.796;11.978;2023-09-30T00:21:28;15.93;;;10.20;;
25349;SDS011;13302;48.796;11.978;2023-09-30T00:24:15;16.10;;;10.83;;
25349;SDS011;13302;48.796;11.978;2023-09-30T00:27:02;15.60;;;10.37;;
25349;SDS011;13302;48.796;11.978;2023-09-30T00:29:49;18.53;;;11.33;;
25349;SDS011;13302;48.796;11.978;2023-09-30T00:32:36;18.90;;;10.57;;
25349;SDS011;13302;48.796;11.978;2023-09-30T00:35:24;16.60;;;10.20;;
25349;SDS011;13302;48.796;11.978;2023-09-30T00:38:11;16.23;;;10.67;;
25349;SDS011;13302;48.796;11.978;2023-09-30T00:40:58;17.43;;;11.10;;
25349;SDS011;13302;48.796;11.978;2023-09-30T00:43:46;18.30;;;11.17;;
25349;SDS011;13302;48.796;11.978;2023-09-30T00:46:35;16.93;;;10.07;;
25349;SDS011;13302;48.796;11.978;2023-09-30T00:49:24;16.37;;;10.13;;
25349;SDS011;13302;48.796;11.978;2023-09-30T00:52:11;19.07;;;10.90;;
25349;SDS011;13302;48.796;11.978;2023-09-30T00:54:59;17.50;;;10.97;;
25349;SDS011;13302;48.796;11.978;2023-09-30T00:57:46;16.80;;;10.53;;
25349;SDS011;13302;48.796;11.978;2023-09-30T01:00:34;14.17;;;9.83;;
25349;SDS011;13302;48.796;11.978;2023-09-30T01:03:23;16.67;;;10.13;;
25349;SDS011;13302;48.796;11.978;2023-09-30T01:06:10;17.90;;;10.47;;
25349;SDS011;13302;48.796;11.978;2023-09-30T01:08:57;15.97;;;10.63;;
25349;SDS011;13302;48.796;11.978;2023-09-30T01:11:44;19.00;;;10.83;;
25349;SDS011;13302;48.796;11.978;2023-09-30T01:14:32;17.63;;;10.13;;
25349;SDS011;13302;48.796;11.978;2023-09-30T01:17:27;19.00;;;10.90;;
25349;SDS011;13302;48.796;11.978;2023-09-30T01:20:16;16.17;;;10.03;;
25349;SDS011;13302;48.796;11.978;2023-09-30T01:23:03;15.53;;;9.37;;
25349;SDS011;13302;48.796;11.978;2023-09-30T01:25:50;16.07;;;9.20;;
25349;SDS011;13302;48.796;11.978;2023-09-30T01:28:38;14.20;;;9.80;;
25349;SDS011;13302;48.796;11.978;2023-09-30T01:31:25;17.37;;;10.30;;
25349;SDS011;13302;48.796;11.978;2023-09-30T01:34:14;16.73;;;9.73;;
25349;SDS011;13302;48.796;11.978;2023-09-30T01:37:02;13.13;;;8.97;;
25349;SDS011;13302;48.796;11.978;2023-09-30T01:39:49;15.40;;;9.87;;
25349;SDS011;13302;48.796;11.978;2023-09-30T01:42:37;16.67;;;9.90;;
25349;SDS011;13302;48.796;11.978;2023-09-30T01:45:25;13.23;;;8.73;;
25349;SDS011;13302;48.796;11.978;2023-09-30T01:48:12;12.17;;;8.30;;
25349;SDS011;13302;48.796;11.978;2023-09-30T01:50:59;13.67;;;8.90;;
25349;SDS011;13302;48.796;11.978;2023-09-30T01:53:46;14.03;;;8.47;;
25349;SDS011;13302;48.796;11.978;2023-09-30T01:56:36;14.10;;;8.53;;
25349;SDS011;13302;48.796;11.978;2023-09-30T01:59:23;15.03;;;9.50;;
25349;SDS011;13302;48.796;11.978;2023-09-30T02:02:11;15.57;;;9.07;;
25349;SDS011;13302;48.796;11.978;2023-09-30T02:04:58;13.87;;;8.43;;
25349;SDS011;13302;48.796;11.978;2023-09-30T02:07:45;12.87;;;8.03;;
25349;SDS011;13302;48.796;11.978;2023-09-30T02:10:32;14.13;;;8.63;;
25349;SDS011;13302;48.796;11.978;2023-09-30T02:13:23;13.27;;;7.80;;
25349;SDS011;13302;48.796;11.978;2023-09-30T02:16:13;10.50;;;7.10;;
25349;SDS011;13302;48.796;11.978;2023-09-30T02:19:01;12.83;;;7.80;;
25349;SDS011;13302;48.796;11.978;2023-09-30T02:21:48;12.10;;;7.70;;
25349;SDS011;13302;48.796;11.978;2023-09-30T02:24:35;12.23;;;8.07;;
25349;SDS011;13302;48.796;11.978;2023-09-30T02:27:22;10.40;;;7.00;;
25349;SDS011;13302;48.796;11.978;2023-09-30T02:30:09;12.10;;;6.93;;
25349;SDS011;13302;48.796;11.978;2023-09-30T02:32:58;10.53;;;7.00;;
25349;SDS011;13302;48.796;11.978;2023-09-30T02:35:46;9.17;;;6.57;;
25349;SDS011;13302;48.796;11.978;2023-09-30T02:38:33;10.13;;;6.60;;
25349;SDS011;13302;48.796;11.978;2023-09-30T02:41:21;11.80;;;6.50;;
25349;SDS011;13302;48.796;11.978;2023-09-30T02:44:08;11.40;;;7.23;;
25349;SDS011;13302;48.796;11.978;2023-09-30T02:46:55;10.13;;;6.67;;
25349;SDS011;13302;48.796;11.978;2023-09-30T02:49:42;11.13;;;7.10;;
25349;SDS011;13302;48.796;11.978;2023-09-30T02:52:29;10.60;;;6.17;;
25349;SDS011;13302;48.796;11.978;2023-09-30T02:55:16;12.23;;;6.47;;
25349;SDS011;13302;48.796;11.978;2023-09-30T02:58:03;11.13;;;6.23;;
25349;SDS011;13302;48.796;11.978;2023-09-30T03:00:50;11.87;;;6.37;;
25349;SDS011;13302;48.796;11.978;2023-09-30T03:03:39;11.37;;;6.60;;
25349;SDS011;13302;48.796;11.978;2023-09-30T03:06:26;9.37;;;6.27;;
25349;SDS011;13302;48.796;11.978;2023-09-30T03:09:14;8.17;;;5.63;;
25349;SDS011;13302;48.796;11.978;2023-09-30T03:12:02;9.23;;;5.53;;
25349;SDS011;13302;48.796;11.978;2023-09-30T03:14:51;9.23;;;5.67;;
25349;SDS011;13302;48.796;11.978;2023-09-30T03:17:38;8.37;;;5.40;;
25349;SDS011;13302;48.796;11.978;2023-09-30T03:20:25;9.77;;;5.67;;
25349;SDS011;13302;48.796;11.978;2023-09-30T03:23:13;9.03;;;5.27;;
25349;SDS011;13302;48.796;11.978;2023-09-30T03:26:00;8.40;;;5.33;;
25349;SDS011;13302;48.796;11.978;2023-09-30T03:28:47;9.93;;;5.47;;
25349;SDS011;13302;48.796;11.978;2023-09-30T03:31:36;10.00;;;5.67;;
25349;SDS011;13302;48.796;11.978;2023-09-30T03:34:23;7.10;;;4.73;;
25349;SDS011;13302;48.796;11.978;2023-09-30T03:37:10;9.93;;;4.80;;
25349;SDS011;13302;48.796;11.978;2023-09-30T03:39:57;8.27;;;5.63;;
25349;SDS011;13302;48.796;11.978;2023-09-30T03:42:45;9.83;;;5.40;;
25349;SDS011;13302;48.796;11.978;2023-09-30T03:45:34;9.60;;;6.00;;
25349;SDS011;13302;48.796;11.978;2023-09-30T03:48:22;8.37;;;5.47;;
25349;SDS011;13302;48.796;11.978;2023-09-30T03:51:10;8.77;;;5.67;;
25349;SDS011;13302;48.796;11.978;2023-09-30T03:54:00;8.40;;;5.60;;
25349;SDS011;13302;48.796;11.978;2023-09-30T03:56:49;7.97;;;5.60;;
25349;SDS011;13302;48.796;11.978;2023-09-30T03:59:37;9.60;;;5.50;;
25349;SDS011;13302;48.796;11.978;2023-09-30T04:02:24;9.50;;;5.37;;
25349;SDS011;13302;48.796;11.978;2023-09-30T04:05:11;8.37;;;5.57;;
25349;SDS011;13302;48.796;11.978;2023-09-30T04:08:00;8.10;;;5.47;;
25349;SDS011;13302;48.796;11.978;2023-09-30T04:10:47;8.67;;;5.20;;
25349;SDS011;13302;48.796;11.978;2023-09-30T04:13:34;8.83;;;5.83;;
25349;SDS011;13302;48.796;11.978;2023-09-30T04:16:21;7.67;;;5.03;;
25349;SDS011;13302;48.796;11.978;2023-09-30T04:19:09;8.03;;;5.43;;
25349;SDS011;13302;48.796;11.978;2023-09-30T04:21:57;8.53;;;5.40;;
25349;SDS011;13302;48.796;11.978;2023-09-30T04:24:44;8.60;;;5.60;;
25349;SDS011;13302;48.796;11.978;2023-09-30T04:27:32;9.23;;;5.70;;
25349;SDS011;13302;48.796;11.978;2023-09-30T04:30:19;7.67;;;5.20;;
25349;SDS011;13302;48.796;11.978;2023-09-30T04:33:09;6.93;;;4.97;;
25349;SDS011;13302;48.796;11.978;2023-09-30T04:35:58;9.00;;;5.60;;
25349;SDS011;13302;48.796;11.978;2023-09-30T04:38:45;7.70;;;4.93;;
25349;SDS011;13302;48.796;11.978;2023-09-30T04:41:32;8.70;;;5.40;;
25349;SDS011;13302;48.796;11.978;2023-09-30T04:44:20;8.53;;;5.03;;
25349;SDS011;13302;48.796;11.978;2023-09-30T04:47:07;8.83;;;5.77;;
25349;SDS011;13302;48.796;11.978;2023-09-30T04:49:54;8.97;;;5.27;;
25349;SDS011;13302;48.796;11.978;2023-09-30T04:52:41;9.10;;;5.47;;
25349;SDS011;13302;48.796;11.978;2023-09-30T04:55:28;6.60;;;5.20;;
25349;SDS011;13302;48.796;11.978;2023-09-30T04:58:16;9.77;;;5.77;;
25349;SDS011;13302;48.796;11.978;2023-09-30T05:01:03;8.97;;;5.43;;
25349;SDS011;13302;48.796;11.978;2023-09-30T05:03:50;7.27;;;5.00;;
25349;SDS011;13302;48.796;11.978;2023-09-30T05:06:38;8.23;;;5.33;;
25349;SDS011;13302;48.796;11.978;2023-09-30T05:09:25;7.20;;;5.03;;
25349;SDS011;13302;48.796;11.978;2023-09-30T05:12:12;8.23;;;6.07;;
25349;SDS011;13302;48.796;11.978;2023-09-30T05:14:59;8.97;;;5.37;;
25349;SDS011;13302;48.796;11.978;2023-09-30T05:17:47;9.60;;;4.97;;
25349;SDS011;13302;48.796;11.978;2023-09-30T05:20:35;9.03;;;5.40;;
25349;SDS011;13302;48.796;11.978;2023-09-30T05:23:23;7.80;;;5.00;;
25349;SDS011;13302;48.796;11.978;2023-09-30T05:26:11;7.63;;;4.90;;
25349;SDS011;13302;48.796;11.978;2023-09-30T05:28:58;7.70;;;4.87;;
25349;SDS011;13302;48.796;11.978;2023-09-30T05:31:46;10.60;;;5.87;;
25349;SDS011;13302;48.796;11.978;2023-09-30T05:34:33;8.07;;;5.03;;
25349;SDS011;13302;48.796;11.978;2023-09-30T05:37:21;8.83;;;5.07;;
25349;SDS011;13302;48.796;11.978;2023-09-30T05:40:08;9.30;;;5.40;;
25349;SDS011;13302;48.796;11.978;2023-09-30T05:43:09;7.43;;;4.50;;
25349;SDS011;13302;48.796;11.978;2023-09-30T05:46:00;9.23;;;5.67;;
25349;SDS011;13302;48.796;11.978;2023-09-30T05:48:48;7.43;;;5.10;;
25349;SDS011;13302;48.796;11.978;2023-09-30T05:51:35;7.77;;;5.60;;
25349;SDS011;13302;48.796;11.978;2023-09-30T05:54:22;7.77;;;5.50;;
25349;SDS011;13302;48.796;11.978;2023-09-30T05:57:09;9.73;;;5.50;;
25349;SDS011;13302;48.796;11.978;2023-09-30T05:59:56;7.23;;;5.20;;
25349;SDS011;13302;48.796;11.978;2023-09-30T06:02:43;6.90;;;4.67;;
25349;SDS011;13302;48.796;11.978;2023-09-30T06:05:30;6.63;;;4.63;;
25349;SDS011;13302;48.796;11.978;2023-09-30T06:08:18;8.33;;;5.10;;
25349;SDS011;13302;48.796;11.978;2023-09-30T06:11:05;9.17;;;5.50;;
25349;SDS011;13302;48.796;11.978;2023-09-30T06:13:56;7.70;;;4.63;;
25349;SDS011;13302;48.796;11.978;2023-09-30T06:16:47;7.27;;;4.63;;
25349;SDS011;13302;48.796;11.978;2023-09-30T06:19:34;7.97;;;5.20;;
25349;SDS011;13302;48.796;11.978;2023-09-30T06:22:21;7.57;;;4.63;;
25349;SDS011;13302;48.796;11.978;2023-09-30T06:25:09;8.17;;;4.60;;
25349;SDS011;13302;48.796;11.978;2023-09-30T06:27:56;5.93;;;4.27;;
25349;SDS011;13302;48.796;11.978;2023-09-30T06:30:44;5.50;;;4.73;;
25349;SDS011;13302;48.796;11.978;2023-09-30T06:33:34;8.07;;;4.60;;
25349;SDS011;13302;48.796;11.978;2023-09-30T06:36:22;7.07;;;4.10;;
25349;SDS011;13302;48.796;11.978;2023-09-30T06:39:09;7.37;;;4.53;;
25349;SDS011;13302;48.796;11.978;2023-09-30T06:41:56;5.83;;;3.93;;
25349;SDS011;13302;48.796;11.978;2023-09-30T06:44:43;5.53;;;3.90;;
25349;SDS011;13302;48.796;11.978;2023-09-30T06:47:30;5.70;;;3.87;;
25349;SDS011;13302;48.796;11.978;2023-09-30T06:50:20;7.27;;;4.00;;
25349;SDS011;13302;48.796;11.978;2023-09-30T06:53:08;4.57;;;3.57;;
25349;SDS011;13302;48.796;11.978;2023-09-30T06:55:56;5.50;;;4.40;;
25349;SDS011;13302;48.796;11.978;2023-09-30T06:58:43;5.50;;;4.20;;
25349;SDS011;13302;48.796;11.978;2023-09-30T07:01:30;5.13;;;3.77;;
25349;SDS011;13302;48.796;11.978;2023-09-30T07:04:17;7.10;;;3.70;;
25349;SDS011;13302;48.796;11.978;2023-09-30T07:07:04;6.33;;;4.23;;
25349;SDS011;13302;48.796;11.978;2023-09-30T07:09:51;6.70;;;3.90;;
25349;SDS011;13302;48.796;11.978;2023-09-30T07:12:39;5.63;;;3.93;;
25349;SDS011;13302;48.796;11.978;2023-09-30T07:15:26;6.47;;;4.00;;
25349;SDS011;13302;48.796;11.978;2023-09-30T07:18:13;4.20;;;3.20;;
25349;SDS011;13302;48.796;11.978;2023-09-30T07:21:01;3.67;;;3.17;;
25349;SDS011;13302;48.796;11.978;2023-09-30T07:23:48;5.97;;;3.53;;
25349;SDS011;13302;48.796;11.978;2023-09-30T07:26:35;4.53;;;3.07;;
25349;SDS011;13302;48.796;11.978;2023-09-30T07:29:22;5.80;;;3.30;;
25349;SDS011;13302;48.796;11.978;2023-09-30T07:32:09;4.63;;;3.20;;
25349;SDS011;13302;48.796;11.978;2023-09-30T07:34:56;3.33;;;2.60;;
25349;SDS011;13302;48.796;11.978;2023-09-30T07:37:44;3.07;;;2.50;;
25349;SDS011;13302;48.796;11.978;2023-09-30T07:40:31;2.93;;;2.47;;
25349;SDS011;13302;48.796;11.978;2023-09-30T07:43:19;2.20;;;2.00;;
25349;SDS011;13302;48.796;11.978;2023-09-30T07:46:07;3.03;;;2.20;;
25349;SDS011;13302;48.796;11.978;2023-09-30T07:48:54;3.87;;;2.40;;
25349;SDS011;13302;48.796;11.978;2023-09-30T07:51:42;2.57;;;2.30;;
25349;SDS011;13302;48.796;11.978;2023-09-30T07:54:29;2.83;;;1.80;;
25349;SDS011;13302;48.796;11.978;2023-09-30T07:57:17;2.00;;;1.80;;
25349;SDS011;13302;48.796;11.978;2023-09-30T08:00:05;1.60;;;1.50;;
25349;SDS011;13302;48.796;11.978;2023-09-30T08:02:56;1.50;;;1.40;;
25349;SDS011;13302;48.796;11.978;2023-09-30T08:05:43;3.33;;;1.60;;
25349;SDS011;13302;48.796;11.978;2023-09-30T08:08:30;1.80;;;1.47;;
25349;SDS011;13302;48.796;11.978;2023-09-30T08:11:18;1.60;;;1.50;;
25349;SDS011;13302;48.796;11.978;2023-09-30T08:14:07;1.50;;;1.40;;
25349;SDS011;13302;48.796;11.978;2023-09-30T08:16:56;1.10;;;1.10;;
25349;SDS011;13302;48.796;11.978;2023-09-30T08:19:46;1.10;;;1.10;;
25349;SDS011;13302;48.796;11.978;2023-09-30T08:22:34;1.00;;;1.00;;
25349;SDS011;13302;48.796;11.978;2023-09-30T08:25:21;1.70;;;1.43;;
25349;SDS011;13302;48.796;11.978;2023-09-30T08:28:09;3.90;;;1.13;;
25349;SDS011;13302;48.796;11.978;2023-09-30T08:31:01;1.30;;;1.20;;
25349;SDS011;13302;48.796;11.978;2023-09-30T08:33:49;1.53;;;0.90;;
25349;SDS011;13302;48.796;11.978;2023-09-30T08:36:36;0.77;;;0.77;;
25349;SDS011;13302;48.796;11.978;2023-09-30T08:39:24;0.50;;;0.50;;
25349;SDS011;13302;48.796;11.978;2023-09-30T08:42:11;0.50;;;0.50;;
25349;SDS011;13302;48.796;11.978;2023-09-30T08:44:58;1.90;;;0.40;;
25349;SDS011;13302;48.796;11.978;2023-09-30T08:47:46;1.40;;;0.50;;
25349;SDS011;13302;48.796;11.978;2023-09-30T08:50:33;0.70;;;0.70;;
25349;SDS011;13302;48.796;11.978;2023-09-30T08:53:21;1.10;;;0.53;;
25349;SDS011;13302;48.796;11.978;2023-09-30T08:56:09;1.33;;;0.40;;
25349;SDS011;13302;48.796;11.978;2023-09-30T08:58:57;0.23;;;0.23;;
25349;SDS011;13302;48.796;11.978;2023-09-30T09:01:46;0.33;;;0.27;;
25349;SDS011;13302;48.796;11.978;2023-09-30T09:04:33;0.30;;;0.30;;
25349;SDS011;13302;48.796;11.978;2023-09-30T09:07:20;0.30;;;0.30;;
25349;SDS011;13302;48.796;11.978;2023-09-30T09:10:08;0.37;;;0.37;;
25349;SDS011;13302;48.796;11.978;2023-09-30T09:12:58;0.30;;;0.30;;
25349;SDS011;13302;48.796;11.978;2023-09-30T09:15:45;0.40;;;0.40;;
25349;SDS011;13302;48.796;11.978;2023-09-30T09:18:33;0.33;;;0.33;;
25349;SDS011;13302;48.796;11.978;2023-09-30T09:21:21;0.47;;;0.47;;
25349;SDS011;13302;48.796;11.978;2023-09-30T09:24:15;0.40;;;0.40;;
25349;SDS011;13302;48.796;11.978;2023-09-30T09:27:16;0.50;;;0.50;;
25349;SDS011;13302;48.796;11.978;2023-09-30T09:33:37;2.20;;;1.37;;
25349;SDS011;13302;48.796;11.978;2023-09-30T09:36:38;0.73;;;0.60;;
25349;SDS011;13302;48.796;11.978;2023-09-30T09:39:31;1.20;;;1.13;;
25349;SDS011;13302;48.796;11.978;2023-09-30T09:42:30;1.23;;;0.97;;
25349;SDS011;13302;48.796;11.978;2023-09-30T09:45:24;2.00;;;0.90;;
25349;SDS011;13302;48.796;11.978;2023-09-30T09:48:13;0.87;;;0.87;;
25349;SDS011;13302;48.796;11.978;2023-09-30T09:51:00;0.70;;;0.70;;
25349;SDS011;13302;48.796;11.978;2023-09-30T09:53:49;0.83;;;0.70;;
25349;SDS011;13302;48.796;11.978;2023-09-30T09:56:36;0.50;;;0.50;;
25349;SDS011;13302;48.796;11.978;2023-09-30T09:59:26;0.60;;;0.60;;
25349;SDS011;13302;48.796;11.978;2023-09-30T10:02:14;0.90;;;0.90;;
25349;SDS011;13302;48.796;11.978;2023-09-30T10:05:03;0.90;;;0.90;;
25349;SDS011;13302;48.796;11.978;2023-09-30T10:08:00;0.90;;;0.90;;
25349;SDS011;13302;48.796;11.978;2023-09-30T10:10:49;0.60;;;0.60;;
25349;SDS011;13302;48.796;11.978;2023-09-30T10:16:50;0.80;;;0.80;;
25349;SDS011;13302;48.796;11.978;2023-09-30T10:20:02;0.87;;;0.70;;
25349;SDS011;13302;48.796;11.978;2023-09-30T10:29:08;1.00;;;0.63;;
25349;SDS011;13302;48.796;11.978;2023-09-30T10:31:56;0.50;;;0.47;;
25349;SDS011;13302;48.796;11.978;2023-09-30T10:34:49;0.80;;;0.80;;
25349;SDS011;13302;48.796;11.978;2023-09-30T10:37:38;0.73;;;0.73;;
25349;SDS011;13302;48.796;11.978;2023-09-30T10:40:26;0.60;;;0.60;;
25349;SDS011;13302;48.796;11.978;2023-09-30T10:43:30;0.90;;;0.90;;
25349;SDS011;13302;48.796;11.978;2023-09-30T10:49:17;0.83;;;0.83;;
25349;SDS011;13302;48.796;11.978;2023-09-30T10:52:25;1.17;;;1.13;;
25349;SDS011;13302;48.796;11.978;2023-09-30T10:55:17;0.90;;;0.90;;
25349;SDS011;13302;48.796;11.978;2023-09-30T10:58:06;0.97;;;0.97;;
25349;SDS011;13302;48.796;11.978;2023-09-30T11:00:53;1.57;;;1.30;;
25349;SDS011;13302;48.796;11.978;2023-09-30T11:03:41;2.13;;;1.20;;
25349;SDS011;13302;48.796;11.978;2023-09-30T11:06:29;1.53;;;1.43;;
25349;SDS011;13302;48.796;11.978;2023-09-30T11:09:17;1.27;;;1.20;;
25349;SDS011;13302;48.796;11.978;2023-09-30T11:12:12;2.30;;;1.63;;
25349;SDS011;13302;48.796;11.978;2023-09-30T11:15:01;2.53;;;1.47;;
25349;SDS011;13302;48.796;11.978;2023-09-30T11:17:51;1.50;;;1.47;;
25349;SDS011;13302;48.796;11.978;2023-09-30T11:20:38;3.67;;;1.73;;
25349;SDS011;13302;48.796;11.978;2023-09-30T11:23:25;1.73;;;1.63;;
25349;SDS011;13302;48.796;11.978;2023-09-30T11:26:12;1.43;;;1.33;;
25349;SDS011;13302;48.796;11.978;2023-09-30T11:29:19;2.77;;;2.27;;
25349;SDS011;13302;48.796;11.978;2023-09-30T11:32:07;2.33;;;2.13;;
25349;SDS011;13302;48.796;11.978;2023-09-30T11:34:54;2.73;;;1.97;;
25349;SDS011;13302;48.796;11.978;2023-09-30T11:37:42;2.70;;;2.50;;
25349;SDS011;13302;48.796;11.978;2023-09-30T11:40:31;2.90;;;2.60;;
25349;SDS011;13302;48.796;11.978;2023-09-30T11:43:20;2.37;;;2.17;;
25349;SDS011;13302;48.796;11.978;2023-09-30T11:46:12;2.60;;;2.40;;
25349;SDS011;13302;48.796;11.978;2023-09-30T11:49:01;2.40;;;2.20;;
25349;SDS011;13302;48.796;11.978;2023-09-30T11:51:50;2.33;;;2.00;;
25349;SDS011;13302;48.796;11.978;2023-09-30T11:54:38;2.83;;;2.17;;
25349;SDS011;13302;48.796;11.978;2023-09-30T11:57:31;2.90;;;2.70;;
25349;SDS011;13302;48.796;11.978;2023-09-30T12:00:18;2.73;;;2.50;;
25349;SDS011;13302;48.796;11.978;2023-09-30T12:03:05;3.33;;;2.90;;
25349;SDS011;13302;48.796;11.978;2023-09-30T12:05:53;2.87;;;2.30;;
25349;SDS011;13302;48.796;11.978;2023-09-30T12:08:42;3.13;;;2.90;;
25349;SDS011;13302;48.796;11.978;2023-09-30T12:11:29;3.17;;;2.43;;
25349;SDS011;13302;48.796;11.978;2023-09-30T12:14:16;4.30;;;2.97;;
25349;SDS011;13302;48.796;11.978;2023-09-30T12:17:03;3.47;;;3.17;;
25349;SDS011;13302;48.796;11.978;2023-09-30T12:19:51;4.90;;;4.33;;
25349;SDS011;13302;48.796;11.978;2023-09-30T12:22:38;4.47;;;3.30;;
25349;SDS011;13302;48.796;11.978;2023-09-30T12:25:25;2.97;;;2.70;;
25349;SDS011;13302;48.796;11.978;2023-09-30T12:28:13;5.07;;;3.10;;
25349;SDS011;13302;48.796;11.978;2023-09-30T12:31:04;3.37;;;3.07;;
25349;SDS011;13302;48.796;11.978;2023-09-30T12:33:52;4.10;;;3.30;;
25349;SDS011;13302;48.796;11.978;2023-09-30T12:36:41;4.40;;;3.83;;
25349;SDS011;13302;48.796;11.978;2023-09-30T12:39:30;4.07;;;3.57;;
25349;SDS011;13302;48.796;11.978;2023-09-30T12:42:20;5.60;;;4.50;;
25349;SDS011;13302;48.796;11.978;2023-09-30T12:45:07;4.87;;;3.80;;
25349;SDS011;13302;48.796;11.978;2023-09-30T12:47:54;4.67;;;4.17;;
25349;SDS011;13302;48.796;11.978;2023-09-30T12:50:44;3.63;;;3.10;;
25349;SDS011;13302;48.796;11.978;2023-09-30T12:53:31;4.77;;;3.27;;
25349;SDS011;13302;48.796;11.978;2023-09-30T12:56:19;3.60;;;2.90;;
25349;SDS011;13302;48.796;11.978;2023-09-30T12:59:06;5.17;;;3.30;;
25349;SDS011;13302;48.796;11.978;2023-09-30T13:01:53;4.60;;;3.90;;
25349;SDS011;13302;48.796;11.978;2023-09-30T13:04:40;4.33;;;3.00;;
25349;SDS011;13302;48.796;11.978;2023-09-30T13:07:30;3.50;;;2.83;;
25349;SDS011;13302;48.796;11.978;2023-09-30T13:10:17;3.40;;;3.10;;
25349;SDS011;13302;48.796;11.978;2023-09-30T13:13:04;3.70;;;3.20;;
25349;SDS011;13302;48.796;11.978;2023-09-30T13:15:52;4.23;;;3.23;;
25349;SDS011;13302;48.796;11.978;2023-09-30T13:18:39;5.07;;;4.33;;
25349;SDS011;13302;48.796;11.978;2023-09-30T13:21:27;5.27;;;4.23;;
25349;SDS011;13302;48.796;11.978;2023-09-30T13:24:14;3.73;;;3.40;;
25349;SDS011;13302;48.796;11.978;2023-09-30T13:27:02;4.13;;;3.73;;
25349;SDS011;13302;48.796;11.978;2023-09-30T13:29:49;4.10;;;3.57;;
25349;SDS011;13302;48.796;11.978;2023-09-30T13:32:36;4.97;;;3.40;;
25349;SDS011;13302;48.796;11.978;2023-09-30T13:35:23;4.77;;;3.87;;
25349;SDS011;13302;48.796;11.978;2023-09-30T13:38:11;4.70;;;3.53;;
25349;SDS011;13302;48.796;11.978;2023-09-30T13:40:58;6.23;;;4.13;;
25349;SDS011;13302;48.796;11.978;2023-09-30T13:43:45;5.10;;;4.30;;
25349;SDS011;13302;48.796;11.978;2023-09-30T13:46:32;4.67;;;3.60;;
25349;SDS011;13302;48.796;11.978;2023-09-30T13:49:20;5.63;;;3.63;;
25349;SDS011;13302;48.796;11.978;2023-09-30T13:52:07;4.40;;;3.63;;
25349;SDS011;13302;48.796;11.978;2023-09-30T13:54:54;5.17;;;3.70;;
25349;SDS011;13302;48.796;11.978;2023-09-30T13:57:42;8.57;;;7.67;;
25349;SDS011;13302;48.796;11.978;2023-09-30T14:00:29;7.03;;;4.63;;
25349;SDS011;13302;48.796;11.978;2023-09-30T14:03:16;7.23;;;5.63;;
25349;SDS011;13302;48.796;11.978;2023-09-30T14:06:08;5.10;;;4.60;;
25349;SDS011;13302;48.796;11.978;2023-09-30T14:08:57;5.27;;;4.43;;
25349;SDS011;13302;48.796;11.978;2023-09-30T14:11:45;3.93;;;3.57;;
25349;SDS011;13302;48.796;11.978;2023-09-30T14:14:32;6.20;;;4.50;;
25349;SDS011;13302;48.796;11.978;2023-09-30T14:17:20;4.63;;;3.87;;
25349;SDS011;13302;48.796;11.978;2023-09-30T14:20:08;6.57;;;4.43;;
25349;SDS011;13302;48.796;11.978;2023-09-30T14:22:55;7.07;;;4.37;;
25349;SDS011;13302;48.796;11.978;2023-09-30T14:25:42;5.67;;;4.47;;
25349;SDS011;13302;48.796;11.978;2023-09-30T14:28:29;6.23;;;4.50;;
25349;SDS011;13302;48.796;11.978;2023-09-30T14:31:16;5.03;;;3.97;;
25349;SDS011;13302;48.796;11.978;2023-09-30T14:34:04;5.97;;;4.73;;
25349;SDS011;13302;48.796;11.978;2023-09-30T14:36:52;4.53;;;3.90;;
25349;SDS011;13302;48.796;11.978;2023-09-30T14:39:39;6.07;;;4.47;;
25349;SDS011;13302;48.796;11.978;2023-09-30T14:42:26;5.67;;;4.00;;
25349;SDS011;13302;48.796;11.978;2023-09-30T14:45:14;7.53;;;4.47;;
25349;SDS011;13302;48.796;11.978;2023-09-30T14:48:01;5.87;;;4.70;;
25349;SDS011;13302;48.796;11.978;2023-09-30T14:50:49;5.17;;;4.27;;
25349;SDS011;13302;48.796;11.978;2023-09-30T14:53:37;5.93;;;4.93;;
25349;SDS011;13302;48.796;11.978;2023-09-30T14:56:24;6.93;;;4.97;;
25349;SDS011;13302;48.796;11.978;2023-09-30T14:59:11;5.40;;;3.93;;
25349;SDS011;13302;48.796;11.978;2023-09-30T15:01:58;5.17;;;3.80;;
25349;SDS011;13302;48.796;11.978;2023-09-30T15:04:45;6.93;;;4.60;;
25349;SDS011;13302;48.796;11.978;2023-09-30T15:07:33;5.93;;;4.40;;
25349;SDS011;13302;48.796;11.978;2023-09-30T15:10:20;8.47;;;4.67;;
25349;SDS011;13302;48.796;11.978;2023-09-30T15:13:07;5.93;;;4.30;;
25349;SDS011;13302;48.796;11.978;2023-09-30T15:15:55;5.13;;;3.57;;
25349;SDS011;13302;48.796;11.978;2023-09-30T15:18:42;5.30;;;4.30;;
25349;SDS011;13302;48.796;11.978;2023-09-30T15:21:30;10.67;;;8.27;;
25349;SDS011;13302;48.796;11.978;2023-09-30T15:24:17;12.00;;;9.40;;
25349;SDS011;13302;48.796;11.978;2023-09-30T15:27:04;13.63;;;10.20;;
25349;SDS011;13302;48.796;11.978;2023-09-30T15:29:51;13.03;;;10.03;;
25349;SDS011;13302;48.796;11.978;2023-09-30T15:32:39;21.13;;;17.90;;
25349;SDS011;13302;48.796;11.978;2023-09-30T15:35:28;27.23;;;21.57;;
25349;SDS011;13302;48.796;11.978;2023-09-30T15:38:15;15.87;;;14.00;;
25349;SDS011;13302;48.796;11.978;2023-09-30T15:41:02;12.63;;;8.40;;
25349;SDS011;13302;48.796;11.978;2023-09-30T15:43:50;8.83;;;7.27;;
25349;SDS011;13302;48.796;11.978;2023-09-30T15:46:37;10.40;;;7.47;;
25349;SDS011;13302;48.796;11.978;2023-09-30T15:49:24;11.30;;;8.70;;
25349;SDS011;13302;48.796;11.978;2023-09-30T15:52:11;9.90;;;8.70;;
25349;SDS011;13302;48.796;11.978;2023-09-30T15:54:58;15.40;;;11.33;;
25349;SDS011;13302;48.796;11.978;2023-09-30T15:57:47;17.50;;;12.67;;
25349;SDS011;13302;48.796;11.978;2023-09-30T16:00:37;8.70;;;6.80;;
25349;SDS011;13302;48.796;11.978;2023-09-30T16:03:25;6.17;;;4.33;;
25349;SDS011;13302;48.796;11.978;2023-09-30T16:06:13;5.60;;;4.10;;
25349;SDS011;13302;48.796;11.978;2023-09-30T16:09:00;5.53;;;4.00;;
25349;SDS011;13302;48.796;11.978;2023-09-30T16:11:47;6.37;;;4.13;;
25349;SDS011;13302;48.796;11.978;2023-09-30T16:14:35;5.57;;;4.33;;
25349;SDS011;13302;48.796;11.978;2023-09-30T16:17:22;4.43;;;3.73;;
25349;SDS011;13302;48.796;11.978;2023-09-30T16:20:09;5.30;;;4.13;;
25349;SDS011;13302;48.796;11.978;2023-09-30T16:22:57;5.23;;;3.73;;
25349;SDS011;13302;48.796;11.978;2023-09-30T16:25:44;5.63;;;4.00;;
25349;SDS011;13302;48.796;11.978;2023-09-30T16:28:31;6.03;;;4.30;;
25349;SDS011;13302;48.796;11.978;2023-09-30T16:31:18;6.23;;;4.40;;
25349;SDS011;13302;48.796;11.978;2023-09-30T16:34:05;7.80;;;4.63;;
25349;SDS011;13302;48.796;11.978;2023-09-30T16:36:53;4.67;;;3.97;;
25349;SDS011;13302;48.796;11.978;2023-09-30T16:39:40;5.43;;;4.30;;
25349;SDS011;13302;48.796;11.978;2023-09-30T16:42:28;5.07;;;4.00;;
25349;SDS011;13302;48.796;11.978;2023-09-30T16:45:18;4.60;;;3.73;;
25349;SDS011;13302;48.796;11.978;2023-09-30T16:48:05;7.67;;;4.03;;
25349;SDS011;13302;48.796;11.978;2023-09-30T16:50:52;4.27;;;3.70;;